Terminal Aerodrome Forecast
Issued by NWS Corpus Christi, TX

Home | Current Version | Previous Version | Text Only | Print | Product List | Glossary On
Versions: 1 2 3 4 5 6 7 8 9 10 11 12 13 14
925
FTUS44 KCRP 240535
TAFCRP
TAF
KCRP 240535Z 2406/2506 10003KT P6SM SKC
     FM241200 36012G18KT P6SM SKC
     FM241500 03020G28KT P6SM SCT060
     FM242300 36012G18KT P6SM SCT100
     FM250200 36010KT P6SM SKC=

USA.gov is the U.S. government's official web portal to all federal, state and local government web resources and services.